Time;durP1;ratioP1;P1;durP2;ratioP2;P2;SDS_P1;SDS_P2;PMS_P1;PMS_P2;Temp;Humidity;BMP_temperature;BMP_pressure;BME280_temperature;BME280_humidity;BME280_pressure;Samples;Min_cycle;Max_cycle;Signal;HPM_P1;HPM_P2
2022/01/06 00:01:06;;;;;;;22.00;7.80;;;;;;;2.61;75.51;97818.97;106161;1274;98580;-71
2022/01/06 00:03:35;;;;;;;22.30;8.70;;;;;;;2.59;75.72;97813.27;106097;1274;107785;-70
2022/01/06 00:06:05;;;;;;;24.30;9.00;;;;;;;2.58;75.81;97818.41;106085;1274;97851;-70
2022/01/06 00:08:35;;;;;;;21.90;8.40;;;;;;;2.59;75.76;97820.79;106110;1274;98586;-70
2022/01/06 00:11:10;;;;;;;27.50;9.10;;;;;;;2.57;75.67;97813.20;106084;1273;111183;-67
2022/01/06 00:24:30;;;;;;;24.20;10.30;;;;;;;2.47;75.30;97808.69;106223;1274;111474;-70
2022/01/06 00:26:58;;;;;;;27.60;9.40;;;;;;;2.46;75.40;97807.00;106194;1274;97979;-69
2022/01/06 00:29:26;;;;;;;23.40;9.20;;;;;;;2.47;75.26;97810.10;106213;1274;107733;-71
2022/01/06 00:31:54;;;;;;;24.20;9.00;;;;;;;2.48;75.21;97812.36;106205;1274;97820;-71
2022/01/06 00:34:25;;;;;;;22.10;8.00;;;;;;;2.49;75.31;97815.59;106108;1274;96235;-72
2022/01/06 00:36:53;;;;;;;21.80;8.70;;;;;;;2.48;75.41;97818.48;106157;1274;111352;-71
2022/01/06 00:39:26;;;;;;;23.30;9.60;;;;;;;2.47;75.47;97822.90;106069;1274;97985;-71
2022/01/06 00:42:00;;;;;;;22.30;8.60;;;;;;;2.49;75.16;97819.48;106092;1274;108402;-71
2022/01/06 00:44:30;;;;;;;21.40;8.10;;;;;;;2.49;75.52;97817.73;106124;1274;97951;-70
2022/01/06 00:46:58;;;;;;;21.30;7.80;;;;;;;2.45;75.27;97820.23;106066;1273;97861;-70
2022/01/06 00:49:26;;;;;;;20.40;7.30;;;;;;;2.45;75.39;97813.40;106101;1273;110988;-71
2022/01/06 00:51:54;;;;;;;22.00;8.30;;;;;;;2.44;75.11;97806.64;106097;1274;97077;-71
2022/01/06 00:54:22;;;;;;;20.00;7.90;;;;;;;2.43;75.13;97804.61;106062;1272;108034;-71
2022/01/06 00:56:49;;;;;;;21.80;7.50;;;;;;;2.46;75.14;97799.70;106095;1274;95210;-70
2022/01/06 00:59:17;;;;;;;23.20;7.10;;;;;;;2.47;75.16;97797.38;106125;1274;97872;-70
2022/01/06 01:01:45;;;;;;;20.60;7.40;;;;;;;2.47;75.17;97806.65;106178;1274;111350;-70
2022/01/06 01:04:13;;;;;;;17.40;6.30;;;;;;;2.48;75.17;97811.15;106156;1274;97865;-68
2022/01/06 01:06:41;;;;;;;18.80;6.70;;;;;;;2.45;74.91;97802.73;106126;1274;107765;-69
2022/01/06 01:09:14;;;;;;;20.00;6.50;;;;;;;2.44;75.06;97796.35;106124;1274;96988;-70
2022/01/06 01:11:42;;;;;;;16.60;6.40;;;;;;;2.46;75.15;97798.29;106124;1272;97879;-71
2022/01/06 01:14:26;;;;;;;16.60;5.80;;;;;;;2.48;75.01;97794.66;106134;1274;111464;-69
2022/01/06 01:17:01;;;;;;;16.30;6.20;;;;;;;2.50;75.11;97800.31;106144;1274;97879;-70
2022/01/06 01:19:31;;;;;;;19.40;6.60;;;;;;;2.51;75.20;97805.53;106071;1273;107631;-69
2022/01/06 01:22:02;;;;;;;16.80;5.40;;;;;;;2.52;75.02;97806.84;106003;1274;95340;-71
2022/01/06 01:24:33;;;;;;;17.80;5.30;;;;;;;2.54;75.08;97804.80;106096;1273;98531;-69
2022/01/06 01:27:04;;;;;;;19.70;5.50;;;;;;;2.56;75.03;97805.73;106099;1274;111512;-71
2022/01/06 01:29:40;;;;;;;16.00;5.20;;;;;;;2.57;75.09;97803.42;106125;1274;97811;-71
2022/01/06 01:32:13;;;;;;;17.20;5.20;;;;;;;2.56;74.82;97805.93;106074;1274;107649;-70
2022/01/06 01:34:44;;;;;;;17.70;5.50;;;;;;;2.56;75.11;97804.34;106119;1274;97953;-70
2022/01/06 01:37:15;;;;;;;15.90;5.20;;;;;;;2.56;75.07;97801.39;106148;1274;97970;-72
2022/01/06 01:39:45;;;;;;;17.00;5.40;;;;;;;2.53;75.01;97799.27;106152;1273;111158;-70
2022/01/06 01:42:16;;;;;;;12.90;4.40;;;;;;;2.53;74.64;97801.02;106121;1273;97886;-69
2022/01/06 01:44:45;;;;;;;14.70;5.10;;;;;;;2.55;75.11;97802.16;106053;1274;108092;-70
2022/01/06 01:47:28;;;;;;;14.50;5.10;;;;;;;2.58;75.08;97802.86;106127;1274;98516;-69
2022/01/06 01:50:13;;;;;;;16.70;4.90;;;;;;;2.59;74.76;97798.22;106135;1274;97808;-70
2022/01/06 01:52:53;;;;;;;13.90;5.00;;;;;;;2.59;74.69;97797.33;106093;1274;111301;-71
2022/01/06 01:55:32;;;;;;;11.60;4.10;;;;;;;2.60;75.04;97801.31;106136;1274;97741;-70
2022/01/06 01:58:01;;;;;;;13.60;4.20;;;;;;;2.60;74.84;97807.12;106095;1274;107746;-69
2022/01/06 02:00:31;;;;;;;12.90;4.30;;;;;;;2.59;74.71;97808.41;106125;1274;98081;-72
2022/01/06 02:02:59;;;;;;;10.80;3.80;;;;;;;2.57;74.58;97802.20;106141;1273;97861;-69
2022/01/06 02:05:29;;;;;;;14.70;4.10;;;;;;;2.57;74.76;97797.16;106105;1272;110985;-70
2022/01/06 02:07:59;;;;;;;12.70;4.40;;;;;;;2.58;74.45;97796.37;106138;1273;95183;-69
2022/01/06 02:10:30;;;;;;;12.80;4.10;;;;;;;2.60;74.56;97785.55;106142;1274;107570;-70
2022/01/06 02:13:01;;;;;;;12.50;4.10;;;;;;;2.63;74.52;97783.28;106172;1274;95301;-68
2022/01/06 02:15:32;;;;;;;12.00;3.90;;;;;;;2.66;74.67;97777.99;106169;1274;97912;-68
2022/01/06 02:18:02;;;;;;;12.80;4.50;;;;;;;2.68;74.52;97778.95;106136;1274;111486;-71
2022/01/06 02:20:31;;;;;;;11.30;3.80;;;;;;;2.70;74.74;97780.92;106147;1272;96308;-71
2022/01/06 02:22:59;;;;;;;11.20;4.00;;;;;;;2.72;74.78;97777.33;106166;1274;107404;-71
2022/01/06 02:25:31;;;;;;;12.00;4.10;;;;;;;2.74;74.65;97780.69;106188;1272;97866;-70
2022/01/06 02:28:02;;;;;;;17.00;4.90;;;;;;;2.77;74.64;97790.33;106228;1273;98552;-70
2022/01/06 02:30:34;;;;;;;13.80;4.00;;;;;;;2.78;74.67;97792.15;106182;1274;111546;-71
2022/01/06 02:33:06;;;;;;;13.40;4.00;;;;;;;2.78;74.66;97792.50;106140;1274;97934;-70
2022/01/06 02:35:36;;;;;;;10.60;4.40;;;;;;;2.79;74.22;97793.50;106117;1271;108696;-72
2022/01/06 02:38:04;;;;;;;11.50;3.80;;;;;;;2.78;74.35;97791.67;106171;1272;95373;-71
2022/01/06 02:40:32;;;;;;;10.60;3.70;;;;;;;2.78;74.51;97793.21;106166;1272;97950;-70
2022/01/06 02:43:02;;;;;;;9.80;3.50;;;;;;;2.78;74.58;97800.92;106177;1274;111378;-70
2022/01/06 02:45:35;;;;;;;12.50;4.10;;;;;;;2.78;74.55;97805.31;106100;1273;97897;-69
2022/01/06 02:48:09;;;;;;;11.40;3.70;;;;;;;2.79;74.58;97799.30;106106;1274;107768;-70
2022/01/06 02:50:41;;;;;;;13.10;4.40;;;;;;;2.78;74.06;97803.90;106115;1274;95912;-69
2022/01/06 02:53:13;;;;;;;11.20;3.50;;;;;;;2.78;74.34;97808.29;106161;1274;97964;-68
2022/01/06 02:55:53;;;;;;;13.60;3.70;;;;;;;2.77;74.49;97813.27;106113;1274;109567;-67
2022/01/06 02:58:43;;;;;;;14.00;4.20;;;;;;;2.77;74.15;97813.95;106109;1274;97841;-67
2022/01/06 03:01:10;;;;;;;12.60;4.00;;;;;;;2.79;74.17;97814.88;106044;1274;106752;-66
2022/01/06 03:03:40;;;;;;;10.10;3.50;;;;;;;2.80;74.31;97813.58;106146;1274;97986;-71
2022/01/06 03:06:11;;;;;;;12.60;4.00;;;;;;;2.79;74.03;97818.91;106220;1272;97970;-70
2022/01/06 03:08:39;;;;;;;12.10;4.10;;;;;;;2.80;74.14;97817.45;106136;1274;111418;-69
2022/01/06 03:11:09;;;;;;;9.00;3.60;;;;;;;2.78;74.07;97816.84;106134;1273;97957;-71
2022/01/06 03:13:39;;;;;;;9.40;3.40;;;;;;;2.78;73.98;97818.44;106035;1274;107887;-71
2022/01/06 03:16:07;;;;;;;11.60;4.10;;;;;;;2.77;74.06;97812.90;106039;1274;97985;-71
2022/01/06 03:18:37;;;;;;;11.00;3.50;;;;;;;2.76;73.99;97821.36;106091;1273;97845;-70
2022/01/06 03:21:04;;;;;;;10.50;4.20;;;;;;;2.75;73.77;97820.55;106092;1274;111443;-70
2022/01/06 03:23:32;;;;;;;9.20;3.40;;;;;;;2.75;73.77;97818.64;106084;1274;98607;-69
2022/01/06 03:26:00;;;;;;;12.60;3.60;;;;;;;2.75;73.93;97829.82;106040;1274;108280;-69
2022/01/06 03:28:28;;;;;;;11.60;3.70;;;;;;;2.76;73.65;97825.41;106040;1274;97902;-69
2022/01/06 03:30:56;;;;;;;12.00;3.70;;;;;;;2.72;73.72;97824.91;105997;1273;136153;-70
2022/01/06 03:33:26;;;;;;;13.10;3.60;;;;;;;2.69;73.47;97825.13;106090;1274;109890;-70
2022/01/06 03:35:56;;;;;;;9.50;3.70;;;;;;;2.67;73.69;97828.16;106114;1274;97897;-70
2022/01/06 03:38:24;;;;;;;13.40;4.30;;;;;;;2.67;73.35;97822.58;106155;1273;107712;-71
2022/01/06 03:40:52;;;;;;;12.20;3.90;;;;;;;2.64;73.64;97820.47;106121;1274;97854;-71
2022/01/06 03:43:20;;;;;;;11.80;4.10;;;;;;;2.64;73.45;97814.56;106143;1274;97861;-71
2022/01/06 03:45:50;;;;;;;10.30;3.60;;;;;;;2.63;73.66;97806.59;106116;1274;111344;-71
2022/01/06 03:48:18;;;;;;;13.10;4.60;;;;;;;2.61;73.41;97812.48;106087;1274;98020;-71
2022/01/06 03:50:46;;;;;;;10.90;4.40;;;;;;;2.60;73.44;97812.16;106088;1272;106079;-71
2022/01/06 03:53:14;;;;;;;11.90;4.00;;;;;;;2.60;73.19;97813.08;106081;1273;97843;-71
2022/01/06 03:55:42;;;;;;;12.60;4.00;;;;;;;2.61;73.14;97811.44;106108;1274;98595;-70
2022/01/06 03:58:11;;;;;;;13.00;4.60;;;;;;;2.61;73.57;97815.27;106041;1274;112044;-71
2022/01/06 04:00:42;;;;;;;12.40;3.70;;;;;;;2.63;73.41;97819.49;106044;1274;97975;-69
2022/01/06 04:03:10;;;;;;;10.60;3.90;;;;;;;2.61;73.28;97817.38;106058;1274;106052;-70
2022/01/06 04:05:38;;;;;;;11.10;4.10;;;;;;;2.60;73.69;97817.42;106091;1274;96685;-71
2022/01/06 04:08:06;;;;;;;14.30;4.40;;;;;;;2.60;73.40;97810.10;106124;1274;97871;-70
2022/01/06 04:10:33;;;;;;;9.30;3.80;;;;;;;2.57;73.11;97807.96;106073;1272;111369;-71
2022/01/06 04:13:02;;;;;;;10.60;3.80;;;;;;;2.56;73.20;97806.46;106065;1274;97873;-70
2022/01/06 04:15:29;;;;;;;16.60;4.00;;;;;;;2.56;73.44;97811.91;106191;1274;107702;-71
2022/01/06 04:17:57;;;;;;;12.30;3.70;;;;;;;2.53;73.06;97815.17;106136;1273;97900;-70
2022/01/06 04:20:25;;;;;;;11.50;3.90;;;;;;;2.52;73.12;97818.08;106113;1273;97956;-69
2022/01/06 04:22:53;;;;;;;10.80;3.90;;;;;;;2.51;73.29;97820.20;106094;1273;111277;-69
2022/01/06 04:25:21;;;;;;;9.00;3.40;;;;;;;2.52;73.10;97827.34;106167;1274;95307;-70
2022/01/06 04:27:48;;;;;;;10.70;3.70;;;;;;;2.53;73.14;97825.69;106138;1274;107720;-68
2022/01/06 04:30:16;;;;;;;10.10;4.00;;;;;;;2.55;73.09;97828.22;106194;1274;95483;-70
2022/01/06 04:32:44;;;;;;;8.50;3.60;;;;;;;2.57;73.09;97832.11;106113;1274;99026;-70
2022/01/06 04:35:12;;;;;;;10.10;3.20;;;;;;;2.58;73.11;97831.20;106124;1274;111275;-70
2022/01/06 04:37:44;;;;;;;8.50;3.60;;;;;;;2.58;73.06;97828.91;106141;1274;97855;-69
2022/01/06 04:40:12;;;;;;;11.60;3.50;;;;;;;2.60;72.84;97830.23;106095;1273;107561;-71
2022/01/06 04:42:39;;;;;;;11.30;3.20;;;;;;;2.61;73.07;97828.92;106067;1274;95936;-69
2022/01/06 04:45:11;;;;;;;10.30;3.50;;;;;;;2.63;73.26;97829.33;106086;1274;97982;-70
2022/01/06 04:47:38;;;;;;;9.00;2.80;;;;;;;2.64;73.00;97833.11;106116;1274;112082;-70
2022/01/06 04:50:07;;;;;;;9.30;3.20;;;;;;;2.65;72.92;97833.05;106139;1274;97947;-71
2022/01/06 04:52:34;;;;;;;8.60;2.90;;;;;;;2.65;72.73;97835.67;105974;1274;106370;-72
2022/01/06 04:55:09;;;;;;;9.70;3.10;;;;;;;2.64;72.77;97831.00;106096;1274;97886;-70
2022/01/06 04:57:37;;;;;;;9.50;3.20;;;;;;;2.64;73.19;97834.67;106151;1273;98150;-69
2022/01/06 05:00:08;;;;;;;7.70;2.90;;;;;;;2.63;72.76;97832.65;106158;1274;111264;-70
2022/01/06 05:02:36;;;;;;;9.10;2.90;;;;;;;2.61;72.80;97835.03;106108;1274;95452;-69
2022/01/06 05:05:08;;;;;;;8.60;3.30;;;;;;;2.60;72.86;97837.75;106171;1273;108669;-69
2022/01/06 05:07:36;;;;;;;10.10;3.30;;;;;;;2.54;72.43;97838.05;106159;1274;95486;-70
2022/01/06 05:10:07;;;;;;;8.10;3.10;;;;;;;2.54;72.61;97838.05;106182;1274;97867;-70
2022/01/06 05:12:44;;;;;;;13.00;3.90;;;;;;;2.54;72.59;97838.25;106166;1274;111308;-71
2022/01/06 05:15:17;;;;;;;8.90;2.70;;;;;;;2.55;72.59;97840.63;106218;1274;95823;-69
2022/01/06 05:17:44;;;;;;;8.60;3.10;;;;;;;2.55;72.32;97840.27;106131;1274;107623;-71
2022/01/06 05:20:12;;;;;;;9.30;3.20;;;;;;;2.56;72.42;97845.14;106120;1274;97963;-69
2022/01/06 05:22:45;;;;;;;9.90;3.40;;;;;;;2.55;72.33;97840.28;106241;1272;95371;-70
2022/01/06 05:25:14;;;;;;;10.10;3.10;;;;;;;2.53;72.58;97836.91;106075;1274;111401;-71
2022/01/06 05:27:41;;;;;;;9.60;2.90;;;;;;;2.51;72.13;97835.44;106068;1274;97924;-71
2022/01/06 05:30:10;;;;;;;7.80;3.20;;;;;;;2.50;72.12;97837.45;106098;1274;106374;-70
2022/01/06 05:32:37;;;;;;;10.00;3.00;;;;;;;2.49;72.45;97832.76;106170;1274;96358;-67
2022/01/06 05:35:09;;;;;;;8.40;2.80;;;;;;;2.49;72.08;97828.40;106098;1274;97817;-69
2022/01/06 05:37:41;;;;;;;6.20;2.60;;;;;;;2.51;72.45;97836.66;106171;1274;110915;-68
2022/01/06 05:40:13;;;;;;;11.10;3.20;;;;;;;2.52;72.27;97843.93;106138;1274;97871;-69
2022/01/06 05:42:48;;;;;;;7.40;2.80;;;;;;;2.53;72.45;97853.36;106174;1274;107617;-70
2022/01/06 05:45:20;;;;;;;9.70;3.10;;;;;;;2.53;71.87;97858.10;106206;1274;97960;-70
2022/01/06 05:47:48;;;;;;;8.00;3.00;;;;;;;2.53;72.24;97864.91;106253;1274;97864;-70
2022/01/06 05:50:16;;;;;;;9.20;3.60;;;;;;;2.52;72.45;97864.74;106227;1274;110908;-70
2022/01/06 05:52:48;;;;;;;8.70;2.90;;;;;;;2.52;72.14;97868.11;106115;1274;95204;-69
2022/01/06 05:55:15;;;;;;;9.00;3.30;;;;;;;2.52;71.94;97869.66;106060;1274;108509;-71
2022/01/06 05:57:44;;;;;;;9.10;3.70;;;;;;;2.53;72.18;97870.17;106114;1274;95293;-71
2022/01/06 06:00:12;;;;;;;14.00;4.20;;;;;;;2.53;72.30;97867.17;106124;1274;97880;-72
2022/01/06 06:02:40;;;;;;;14.60;4.50;;;;;;;2.54;72.02;97871.48;106205;1274;111619;-68
2022/01/06 06:05:12;;;;;;;20.50;4.90;;;;;;;2.56;71.97;97869.11;106184;1274;97889;-70
2022/01/06 06:07:39;;;;;;;16.70;5.40;;;;;;;2.57;72.16;97873.41;106233;1274;107454;-68
2022/01/06 06:10:09;;;;;;;12.10;3.90;;;;;;;2.59;71.92;97877.69;106242;1274;95352;-70
2022/01/06 06:12:37;;;;;;;14.40;3.80;;;;;;;2.61;71.93;97876.88;106174;1273;97828;-70
2022/01/06 06:15:09;;;;;;;14.50;4.40;;;;;;;2.63;71.94;97879.22;106180;1273;111063;-69
2022/01/06 06:17:37;;;;;;;14.30;3.80;;;;;;;2.62;71.99;97877.83;106131;1274;97828;-70
2022/01/06 06:20:09;;;;;;;14.90;4.30;;;;;;;2.60;71.61;97881.11;106105;1274;108391;-70
2022/01/06 06:22:37;;;;;;;11.30;3.30;;;;;;;2.60;71.68;97882.02;106076;1274;97911;-71
2022/01/06 06:25:08;;;;;;;10.70;3.30;;;;;;;2.60;71.73;97889.03;106196;1274;97824;-69
2022/01/06 06:27:36;;;;;;;9.00;3.20;;;;;;;2.59;71.87;97889.42;106242;1274;112243;-69
2022/01/06 06:30:08;;;;;;;9.70;3.10;;;;;;;2.58;71.41;97892.08;106243;1274;97927;-69
2022/01/06 06:32:35;;;;;;;6.00;2.40;;;;;;;2.59;71.57;97894.69;106139;1274;107566;-71
2022/01/06 06:35:06;;;;;;;8.40;2.80;;;;;;;2.61;71.52;97901.91;106108;1273;97953;-69
2022/01/06 06:37:34;;;;;;;8.10;2.90;;;;;;;2.61;70.91;97908.70;106161;1274;97983;-71
2022/01/06 06:40:08;;;;;;;8.60;3.10;;;;;;;2.62;71.32;97907.29;106242;1273;111502;-69
2022/01/06 06:42:38;;;;;;;11.50;3.10;;;;;;;2.62;71.31;97907.80;106194;1274;95635;-70
2022/01/06 06:45:08;;;;;;;8.60;3.00;;;;;;;2.65;71.49;97911.29;106108;1274;107550;-69
2022/01/06 06:47:37;;;;;;;10.90;3.20;;;;;;;2.68;71.52;97916.33;106122;1273;97835;-71
2022/01/06 06:50:11;;;;;;;5.90;2.90;;;;;;;2.71;71.62;97922.16;106263;1274;97942;-68
2022/01/06 06:52:39;;;;;;;11.90;3.10;;;;;;;2.74;71.11;97923.38;106204;1273;111392;-69
2022/01/06 06:55:12;;;;;;;10.30;3.50;;;;;;;2.78;71.61;97929.80;106103;1274;97979;-69
2022/01/06 06:57:44;;;;;;;11.90;3.10;;;;;;;2.81;71.58;97931.35;106127;1274;106082;-69
2022/01/06 07:00:13;;;;;;;8.00;2.60;;;;;;;2.85;71.70;97930.06;106121;1274;97960;-70
2022/01/06 07:02:43;;;;;;;6.50;2.50;;;;;;;2.90;71.62;97931.15;106112;1274;97917;-72
2022/01/06 07:05:11;;;;;;;9.70;2.90;;;;;;;2.95;71.03;97936.13;106105;1274;111865;-70
2022/01/06 07:07:39;;;;;;;9.50;3.50;;;;;;;2.97;70.97;97937.59;106251;1274;95233;-71
2022/01/06 07:10:07;;;;;;;11.60;3.80;;;;;;;2.98;71.29;97937.86;106124;1274;107409;-68
2022/01/06 07:12:44;;;;;;;10.20;3.50;;;;;;;3.01;71.58;97931.23;106155;1274;97949;-70
2022/01/06 07:15:15;;;;;;;11.30;3.40;;;;;;;3.05;71.24;97931.36;106199;1273;97940;-70
2022/01/06 07:17:43;;;;;;;9.70;3.20;;;;;;;3.08;71.43;97933.76;106118;1273;111387;-71
2022/01/06 07:20:11;;;;;;;11.40;3.20;;;;;;;3.11;71.13;97936.92;106177;1274;97965;-71
2022/01/06 07:22:44;;;;;;;8.60;2.70;;;;;;;3.15;71.15;97934.28;106135;1274;108294;-70
2022/01/06 07:25:13;;;;;;;10.70;3.70;;;;;;;3.18;70.78;97935.30;106116;1274;98579;-69
2022/01/06 07:27:45;;;;;;;11.30;3.40;;;;;;;3.20;70.84;97935.71;106219;1274;97979;-69
2022/01/06 07:30:13;;;;;;;6.90;3.10;;;;;;;3.22;70.54;97938.19;106196;1274;111882;-69
2022/01/06 07:32:50;;;;;;;9.70;3.10;;;;;;;3.26;70.99;97942.15;106172;1274;97857;-70
2022/01/06 07:35:24;;;;;;;11.80;3.50;;;;;;;3.31;70.79;97942.42;106109;1274;107708;-70
2022/01/06 07:37:52;;;;;;;;;;;;;;;3.32;70.95;97943.55;106154;1274;97768;-71
2022/01/06 07:40:25;;;;;;;10.80;4.50;;;;;;;3.33;70.78;97953.52;106106;1274;97735;-68
2022/01/06 07:42:53;;;;;;;13.40;3.20;;;;;;;3.37;70.91;97958.02;106167;1274;111967;-70
2022/01/06 07:45:20;;;;;;;15.30;3.70;;;;;;;3.35;70.62;97960.20;106162;1274;97924;-68
2022/01/06 07:47:56;;;;;;;8.90;3.30;;;;;;;3.35;70.77;97959.51;106104;1274;108756;-70
2022/01/06 07:50:34;;;;;;;13.30;3.80;;;;;;;3.37;70.64;97962.00;106189;1274;97959;-70
2022/01/06 07:53:06;;;;;;;13.90;3.80;;;;;;;3.36;70.55;97965.09;106174;1273;97979;-70
2022/01/06 07:55:34;;;;;;;10.20;3.40;;;;;;;3.33;70.52;97963.64;106242;1274;111527;-69
2022/01/06 07:58:06;;;;;;;12.80;3.60;;;;;;;3.33;70.43;97963.48;106211;1274;97739;-68
2022/01/06 08:00:34;;;;;;;13.40;3.60;;;;;;;3.33;70.38;97965.61;106149;1274;108188;-71
2022/01/06 08:03:02;;;;;;;12.30;3.30;;;;;;;3.34;70.52;97967.98;106244;1273;97879;-69
2022/01/06 08:05:32;;;;;;;15.00;3.60;;;;;;;3.36;69.85;97967.15;106224;1274;96313;-70
2022/01/06 08:08:00;;;;;;;11.50;3.20;;;;;;;3.37;70.28;97967.23;106211;1274;111273;-70
2022/01/06 08:10:28;;;;;;;11.20;3.80;;;;;;;3.41;70.41;97972.25;106205;1274;97944;-70
2022/01/06 08:12:56;;;;;;;12.10;3.50;;;;;;;3.44;70.17;97974.21;106236;1274;107731;-70
2022/01/06 08:15:24;;;;;;;10.50;3.80;;;;;;;3.49;70.29;97974.27;106110;1274;97871;-70
2022/01/06 08:17:51;;;;;;;13.90;3.80;;;;;;;3.54;70.32;97973.96;106240;1274;97868;-68
2022/01/06 08:20:19;;;;;;;11.90;4.00;;;;;;;3.59;70.43;97973.50;106141;1274;112056;-68
2022/01/06 08:22:47;;;;;;;12.00;4.00;;;;;;;3.65;70.51;97982.92;106143;1274;97780;-70
2022/01/06 08:25:15;;;;;;;14.00;4.30;;;;;;;3.70;70.13;97985.57;106190;1273;107636;-70
2022/01/06 08:27:42;;;;;;;15.30;4.40;;;;;;;3.76;70.11;97982.96;106265;1273;97836;-72
2022/01/06 08:30:11;;;;;;;11.30;3.70;;;;;;;3.81;70.18;97983.89;106254;1274;95206;-69
2022/01/06 08:32:38;;;;;;;12.20;3.50;;;;;;;3.84;70.04;97979.65;106158;1274;111325;-72
2022/01/06 08:35:07;;;;;;;9.60;3.60;;;;;;;3.86;69.99;97978.64;106220;1274;97879;-71
2022/01/06 08:37:34;;;;;;;13.60;3.60;;;;;;;3.89;70.29;97981.27;106159;1274;106711;-72
2022/01/06 08:40:07;;;;;;;15.30;4.70;;;;;;;3.94;70.11;97986.91;106117;1274;98011;-70
2022/01/06 08:42:39;;;;;;;11.10;3.40;;;;;;;3.99;70.17;97991.69;106214;1274;97967;-75
2022/01/06 08:45:11;;;;;;;13.60;4.10;;;;;;;4.04;70.14;97995.82;106166;1273;111459;-73
2022/01/06 08:47:40;;;;;;;16.30;4.40;;;;;;;4.08;69.92;97996.09;106103;1273;97971;-71
2022/01/06 08:50:11;;;;;;;11.60;4.20;;;;;;;4.11;69.98;97994.80;106152;1274;107854;-73
2022/01/06 08:52:40;;;;;;;9.00;3.00;;;;;;;4.13;69.66;97996.42;106128;1274;97949;-73
2022/01/06 08:55:11;;;;;;;10.20;3.40;;;;;;;4.20;69.87;97997.41;106053;1274;97975;-70
2022/01/06 08:57:39;;;;;;;13.70;4.40;;;;;;;4.34;70.08;98000.75;106239;1273;111364;-74
2022/01/06 09:00:10;;;;;;;10.40;3.40;;;;;;;4.52;69.79;98004.48;106180;1274;97873;-68
2022/01/06 09:02:39;;;;;;;14.60;3.90;;;;;;;4.72;69.77;98006.23;106102;1274;108300;-70
2022/01/06 09:05:10;;;;;;;12.60;3.80;;;;;;;4.81;69.57;98009.45;106072;1274;95952;-71
2022/01/06 09:07:38;;;;;;;13.40;4.00;;;;;;;4.85;69.33;98006.02;106113;1274;95917;-70
2022/01/06 09:10:06;;;;;;;11.30;3.80;;;;;;;4.85;69.65;98006.58;106111;1274;111341;-69
2022/01/06 09:12:34;;;;;;;11.40;3.80;;;;;;;4.83;69.63;98005.14;106080;1273;97968;-71
2022/01/06 09:15:07;;;;;;;12.20;4.10;;;;;;;4.80;68.97;98011.27;106090;1273;106724;-70
2022/01/06 09:17:39;;;;;;;13.50;4.30;;;;;;;4.75;69.31;98013.93;106098;1274;97888;-72
2022/01/06 09:20:08;;;;;;;14.80;4.20;;;;;;;4.72;69.53;98023.02;106174;1274;97937;-72
2022/01/06 09:22:44;;;;;;;10.40;3.50;;;;;;;4.69;69.34;98022.89;106040;1274;111249;-71
2022/01/06 09:25:17;;;;;;;17.50;4.90;;;;;;;4.64;69.21;98019.00;106043;1274;97854;-70
2022/01/06 09:27:45;;;;;;;20.50;6.10;;;;;;;4.60;68.66;98019.80;105736;1274;107756;-69
2022/01/06 09:30:13;;;;;;;15.30;5.10;;;;;;;4.59;69.33;98018.11;106103;1274;97899;-69
2022/01/06 09:32:42;;;;;;;12.40;4.30;;;;;;;4.57;69.34;98021.70;106088;1274;97833;-71
2022/01/06 09:35:13;;;;;;;16.30;5.60;;;;;;;4.56;69.15;98022.86;106141;1274;112005;-70
2022/01/06 09:37:40;;;;;;;12.80;4.30;;;;;;;4.54;69.03;98023.33;106138;1273;97871;-69
2022/01/06 09:40:12;;;;;;;14.40;4.90;;;;;;;4.53;69.30;98020.40;106064;1273;107550;-70
2022/01/06 09:42:42;;;;;;;14.50;4.70;;;;;;;4.56;68.75;98019.84;106103;1274;96329;-72
2022/01/06 09:45:13;;;;;;;17.50;5.00;;;;;;;4.59;68.88;98023.36;106146;1273;97920;-70
2022/01/06 09:47:42;;;;;;;16.30;4.50;;;;;;;4.61;69.10;98022.36;106132;1274;111332;-69
2022/01/06 09:50:15;;;;;;;16.20;4.50;;;;;;;4.64;69.08;98017.79;106099;1272;95184;-72
2022/01/06 09:52:44;;;;;;;15.50;4.40;;;;;;;4.67;69.22;98019.32;106108;1274;107533;-68
2022/01/06 09:55:15;;;;;;;25.60;5.40;;;;;;;4.72;69.17;98021.97;106148;1273;97839;-70
2022/01/06 09:57:57;;;;;;;14.50;4.90;;;;;;;4.73;68.88;98021.23;106118;1274;97977;-70
2022/01/06 10:00:34;;;;;;;15.20;4.60;;;;;;;4.68;69.00;98016.30;106118;1274;111384;-70
2022/01/06 10:03:08;;;;;;;13.40;4.70;;;;;;;4.60;68.63;98013.09;106193;1274;95366;-71
2022/01/06 10:05:46;;;;;;;16.70;5.60;;;;;;;4.52;68.93;98010.43;106060;1273;105893;-73
2022/01/06 10:08:29;;;;;;;16.10;4.90;;;;;;;4.47;68.65;98018.33;106067;1274;97752;-69
2022/01/06 10:11:18;;;;;;;14.20;4.70;;;;;;;4.42;68.96;98017.06;106088;1274;97947;-70
2022/01/06 10:13:59;;;;;;;17.60;4.60;;;;;;;4.40;69.05;98019.52;106095;1274;110132;-70
2022/01/06 10:16:31;;;;;;;11.80;4.90;;;;;;;4.36;68.87;98018.52;106126;1273;97875;-70
2022/01/06 10:19:14;;;;;;;16.60;4.90;;;;;;;4.34;68.83;98023.00;106143;1274;106167;-71
2022/01/06 10:21:52;;;;;;;11.30;4.10;;;;;;;4.33;68.56;98020.62;106128;1274;97949;-70
2022/01/06 10:24:24;;;;;;;16.30;4.70;;;;;;;4.28;68.45;98022.20;106205;1273;97926;-70
2022/01/06 10:27:04;;;;;;;13.90;4.30;;;;;;;4.25;68.93;98025.36;106053;1274;111189;-70
2022/01/06 10:29:38;;;;;;;16.10;4.80;;;;;;;4.24;68.61;98017.70;106206;1274;95211;-71
2022/01/06 10:32:11;;;;;;;15.50;4.40;;;;;;;4.22;68.70;98024.13;106041;1274;107749;-70
2022/01/06 10:34:46;;;;;;;18.10;5.30;;;;;;;4.21;68.75;98023.83;106108;1274;95255;-69
2022/01/06 10:37:19;;;;;;;16.50;4.80;;;;;;;4.22;68.98;98024.31;105980;1273;97947;-70
2022/01/06 10:39:49;;;;;;;14.40;4.80;;;;;;;4.22;68.81;98026.05;106065;1274;112413;-70
2022/01/06 10:42:24;;;;;;;14.30;4.30;;;;;;;4.22;68.73;98025.70;106042;1274;97886;-66
2022/01/06 10:44:58;;;;;;;14.20;4.90;;;;;;;4.18;68.28;98026.12;106166;1274;107679;-69
2022/01/06 10:47:39;;;;;;;13.90;5.00;;;;;;;4.15;68.38;98028.73;106233;1274;97961;-69
2022/01/06 10:50:21;;;;;;;15.50;4.50;;;;;;;4.13;68.61;98031.15;106119;1274;97963;-69
2022/01/06 10:52:58;;;;;;;16.10;5.00;;;;;;;4.14;68.82;98028.31;106060;1274;111471;-69
2022/01/06 10:55:28;;;;;;;15.90;5.20;;;;;;;4.15;68.64;98028.61;106055;1274;97879;-69
2022/01/06 10:58:22;;;;;;;14.60;5.00;;;;;;;4.16;68.64;98028.73;106091;1273;107739;-70
2022/01/06 11:01:17;;;;;;;14.00;4.70;;;;;;;4.15;68.46;98031.20;106078;1274;96647;-69
2022/01/06 11:03:45;;;;;;;16.80;5.30;;;;;;;4.12;67.92;98044.73;106072;1274;97072;-69
2022/01/06 11:06:14;;;;;;;9.60;4.20;;;;;;;4.07;67.66;98045.05;106129;1274;112031;-69
2022/01/06 11:08:44;;;;;;;14.10;4.40;;;;;;;4.02;68.00;98047.48;106115;1274;97982;-68
2022/01/06 11:11:27;;;;;;;14.40;4.70;;;;;;;3.98;68.19;98049.13;106008;1273;108227;-68
2022/01/06 11:13:59;;;;;;;16.40;5.30;;;;;;;3.94;68.29;98048.50;106060;1273;97949;-68
2022/01/06 11:16:27;;;;;;;18.40;6.00;;;;;;;3.92;68.46;98045.13;106135;1274;97862;-68
2022/01/06 11:18:59;;;;;;;16.30;5.00;;;;;;;3.92;68.55;98056.86;106111;1274;113044;-68
2022/01/06 11:21:40;;;;;;;16.10;5.30;;;;;;;3.90;67.89;98061.70;106151;1274;97824;-69
2022/01/06 11:24:15;;;;;;;15.70;5.00;;;;;;;3.91;68.27;98058.33;106066;1274;107646;-68
2022/01/06 11:27:09;;;;;;;15.00;4.90;;;;;;;3.94;68.18;98062.52;106041;1273;95248;-68
2022/01/06 11:29:41;;;;;;;16.20;5.00;;;;;;;3.96;67.92;98057.48;105982;1274;99032;-68
2022/01/06 11:32:25;;;;;;;17.30;5.50;;;;;;;3.97;67.74;98058.46;106108;1274;112725;-72
2022/01/06 11:35:11;;;;;;;15.40;4.70;;;;;;;3.95;67.99;98063.31;106131;1274;97879;-69
2022/01/06 11:37:47;;;;;;;17.20;5.70;;;;;;;3.94;67.71;98059.90;106131;1274;107523;-70
2022/01/06 11:40:40;;;;;;;15.00;4.70;;;;;;;3.94;68.21;98059.69;106061;1274;95268;-68
2022/01/06 11:43:08;;;;;;;13.60;4.20;;;;;;;3.98;68.34;98068.75;106044;1273;97957;-67
2022/01/06 11:45:41;;;;;;;15.20;4.30;;;;;;;3.99;67.67;98069.79;106047;1274;112367;-68
2022/01/06 11:48:14;;;;;;;14.00;4.70;;;;;;;3.96;67.89;98066.10;106070;1274;97833;-69
2022/01/06 11:50:51;;;;;;;16.10;5.30;;;;;;;3.94;67.65;98070.62;105951;1274;108167;-68
2022/01/06 11:53:33;;;;;;;12.90;4.60;;;;;;;3.91;67.83;98069.00;106159;1274;97873;-69